Time;durP1;ratioP1;P1;durP2;ratioP2;P2;SDS_P1;SDS_P2;PMS_P1;PMS_P2;Temp;Humidity;BMP_temperature;BMP_pressure;BME280_temperature;BME280_humidity;BME280_pressure;Samples;Min_cycle;Max_cycle;Signal;HPM_P1;HPM_P2
2023/05/15 00:00:16;;;;;;;47.17;28.80;;;11.20;99.90;;;;;;5079404;28;20483;-81
2023/05/15 00:02:43;;;;;;;50.63;29.08;;;11.20;99.90;;;;;;5085134;28;20044;-81
2023/05/15 00:05:09;;;;;;;44.90;27.10;;;11.10;99.90;;;;;;5068278;28;20116;-81
2023/05/15 00:07:35;;;;;;;47.58;27.50;;;11.10;99.90;;;;;;5088451;28;20056;-81
2023/05/15 00:10:01;;;;;;;45.70;27.73;;;11.10;99.90;;;;;;5065058;28;20112;-81
2023/05/15 00:12:27;;;;;;;42.22;27.23;;;11.10;99.90;;;;;;5086474;28;20087;-81
2023/05/15 00:14:53;;;;;;;43.70;27.52;;;11.00;99.90;;;;;;5067110;28;20071;-81
2023/05/15 00:17:18;;;;;;;45.33;26.85;;;11.00;99.90;;;;;;5061065;28;20402;-82
2023/05/15 00:19:44;;;;;;;47.58;25.80;;;11.00;99.90;;;;;;5086873;28;20063;-81
2023/05/15 00:22:10;;;;;;;42.50;26.80;;;10.90;99.90;;;;;;5068591;28;20048;-82
2023/05/15 00:24:35;;;;;;;44.95;26.70;;;11.00;99.90;;;;;;5082315;28;20028;-82
2023/05/15 00:27:01;;;;;;;45.00;27.05;;;10.90;99.90;;;;;;5051320;28;20075;-81
2023/05/15 00:29:27;;;;;;;50.25;30.30;;;10.90;99.90;;;;;;5084832;28;20044;-82
2023/05/15 00:31:52;;;;;;;46.38;27.33;;;10.90;99.90;;;;;;5088150;28;20043;-82
2023/05/15 00:34:18;;;;;;;47.47;26.38;;;11.00;99.90;;;;;;5082866;28;20066;-82
2023/05/15 00:36:44;;;;;;;43.83;27.20;;;10.90;99.90;;;;;;5083473;28;20036;-80
2023/05/15 00:39:10;;;;;;;43.72;25.98;;;10.90;99.90;;;;;;5087612;28;20120;-81
2023/05/15 00:41:36;;;;;;;41.08;23.85;;;10.90;99.90;;;;;;5085002;28;20048;-81
2023/05/15 00:44:02;;;;;;;39.83;24.23;;;10.90;99.90;;;;;;5086017;28;20154;-81
2023/05/15 00:46:30;;;;;;;41.90;26.27;;;10.80;99.90;;;;;;5085311;28;20060;-81
2023/05/15 00:48:57;;;;;;;40.72;24.17;;;10.80;99.90;;;;;;5077518;28;20419;-82
2023/05/15 00:51:25;;;;;;;38.45;24.25;;;10.80;99.90;;;;;;5066407;28;20036;-82
2023/05/15 00:53:51;;;;;;;39.15;23.10;;;10.80;99.90;;;;;;5086211;28;20039;-82
2023/05/15 00:56:17;;;;;;;40.92;22.83;;;10.80;99.90;;;;;;5084776;28;20044;-82
2023/05/15 00:58:48;;;;;;;44.20;22.52;;;10.80;99.90;;;;;;5065541;28;20044;-81
2023/05/15 01:01:15;;;;;;;41.67;22.63;;;10.80;99.90;;;;;;5083061;28;20048;-82
2023/05/15 01:03:44;;;;;;;45.80;22.75;;;10.80;99.90;;;;;;5067048;28;20378;-81
2023/05/15 01:06:10;;;;;;;37.33;22.92;;;10.80;99.90;;;;;;5084588;28;20562;-82
2023/05/15 01:08:48;;;;;;;38.67;22.40;;;10.70;99.90;;;;;;5084201;28;20117;-81
2023/05/15 01:11:15;;;;;;;32.85;21.77;;;10.70;99.90;;;;;;5069165;28;20051;-81
2023/05/15 01:13:41;;;;;;;39.08;23.70;;;10.60;99.90;;;;;;5081858;28;20080;-81
2023/05/15 01:16:08;;;;;;;39.58;23.33;;;10.40;99.90;;;;;;5086134;28;20101;-82
2023/05/15 01:18:34;;;;;;;36.30;23.42;;;10.70;99.90;;;;;;5086658;28;20448;-82
2023/05/15 01:21:09;;;;;;;39.92;24.45;;;10.60;99.90;;;;;;5084286;28;20062;-82
2023/05/15 01:23:50;;;;;;;37.78;23.92;;;10.60;99.90;;;;;;5063316;28;20044;-81
2023/05/15 01:27:06;;;;;;;41.20;26.07;;;10.60;99.90;;;;;;5082842;28;20040;-82
2023/05/15 01:29:54;;;;;;;36.28;23.23;;;10.70;99.90;;;;;;5054819;28;20101;-82
2023/05/15 01:32:25;;;;;;;40.78;24.95;;;10.70;99.90;;;;;;5078804;28;20036;-81
2023/05/15 01:35:03;;;;;;;38.70;24.83;;;10.70;99.90;;;;;;5089248;28;20052;-81
2023/05/15 01:37:32;;;;;;;38.17;23.48;;;10.70;99.90;;;;;;5071782;28;20044;-81
2023/05/15 01:40:01;;;;;;;38.92;25.17;;;10.80;99.90;;;;;;5088605;28;20127;-81
2023/05/15 01:42:32;;;;;;;36.97;24.70;;;10.80;99.90;;;;;;5072208;28;20048;-81
2023/05/15 01:45:03;;;;;;;37.65;23.05;;;10.80;99.90;;;;;;5087376;28;20055;-81
2023/05/15 01:47:42;;;;;;;36.75;22.80;;;10.80;99.90;;;;;;5054473;28;20059;-81
2023/05/15 01:50:12;;;;;;;40.47;23.80;;;10.80;99.90;;;;;;5086097;28;20511;-81
2023/05/15 01:52:41;;;;;;;44.95;24.35;;;10.80;99.90;;;;;;5070878;28;20039;-81
2023/05/15 01:55:08;;;;;;;41.80;23.42;;;10.80;99.90;;;;;;5089928;28;20063;-81
2023/05/15 01:57:35;;;;;;;34.88;22.02;;;10.80;99.90;;;;;;5064943;28;20032;-81
2023/05/15 02:00:02;;;;;;;43.83;22.50;;;10.80;99.90;;;;;;5090191;28;20036;-81
2023/05/15 02:02:29;;;;;;;38.00;24.48;;;10.70;99.90;;;;;;5089105;28;20478;-81
2023/05/15 02:04:55;;;;;;;37.78;23.50;;;10.60;99.90;;;;;;5071058;28;20051;-81
2023/05/15 02:07:22;;;;;;;39.45;24.65;;;10.70;99.90;;;;;;5068708;28;20128;-81
2023/05/15 02:09:50;;;;;;;38.70;22.38;;;10.70;99.90;;;;;;5087858;28;20062;-81
2023/05/15 02:12:15;;;;;;;43.53;23.48;;;10.70;99.90;;;;;;5086277;28;20040;-81
2023/05/15 02:14:42;;;;;;;37.75;22.48;;;10.60;99.90;;;;;;5088692;28;20051;-81
2023/05/15 02:17:08;;;;;;;42.78;23.67;;;10.60;99.90;;;;;;5071797;28;20043;-81
2023/05/15 02:19:33;;;;;;;38.20;23.33;;;10.50;99.90;;;;;;5089022;28;20037;-81
2023/05/15 02:21:59;;;;;;;40.55;23.83;;;10.50;99.90;;;;;;5088534;28;20067;-81
2023/05/15 02:24:25;;;;;;;43.17;22.67;;;10.50;99.90;;;;;;5084307;28;20044;-81
2023/05/15 02:27:13;;;;;;;46.83;24.60;;;10.50;99.90;;;;;;5068632;28;20047;-81
2023/05/15 02:30:07;;;;;;;39.78;23.73;;;10.40;99.90;;;;;;5066981;28;20167;-81
2023/05/15 02:32:43;;;;;;;44.45;23.38;;;10.40;99.90;;;;;;5077067;28;20042;-81
2023/05/15 02:35:31;;;;;;;39.65;24.38;;;10.50;99.90;;;;;;5086236;28;20059;-81
2023/05/15 02:38:01;;;;;;;44.08;24.55;;;10.50;99.90;;;;;;5068357;28;20045;-81
2023/05/15 02:40:29;;;;;;;39.20;24.38;;;10.50;99.90;;;;;;5077560;28;20498;-81
2023/05/15 02:42:56;;;;;;;39.33;23.65;;;10.50;99.90;;;;;;5088929;28;20052;-82
2023/05/15 02:45:23;;;;;;;39.13;24.08;;;10.50;99.90;;;;;;5070177;28;20052;-81
2023/05/15 02:47:50;;;;;;;38.47;24.65;;;10.50;99.90;;;;;;5067201;28;20044;-81
2023/05/15 02:50:17;;;;;;;41.70;24.50;;;10.60;99.90;;;;;;5074719;28;20051;-81
2023/05/15 02:52:42;;;;;;;44.88;24.38;;;10.60;99.90;;;;;;5068852;28;20051;-82
2023/05/15 02:55:08;;;;;;;44.03;25.83;;;10.60;99.90;;;;;;5069473;28;20705;-82
2023/05/15 02:57:34;;;;;;;50.92;24.50;;;10.60;99.90;;;;;;5084780;28;20126;-81
2023/05/15 03:00:00;;;;;;;40.65;23.67;;;10.60;99.90;;;;;;5084196;28;20494;-82
2023/05/15 03:02:26;;;;;;;43.50;25.50;;;10.60;99.90;;;;;;5088144;28;20048;-81
2023/05/15 03:04:52;;;;;;;45.55;25.23;;;10.60;99.90;;;;;;5052872;28;20055;-81
2023/05/15 03:07:18;;;;;;;44.67;24.23;;;10.60;99.90;;;;;;5059676;28;20425;-81
2023/05/15 03:09:43;;;;;;;45.38;25.33;;;10.50;99.90;;;;;;5072654;28;20035;-81
2023/05/15 03:12:09;;;;;;;45.97;25.05;;;10.50;99.90;;;;;;5082762;28;20043;-81
2023/05/15 03:14:35;;;;;;;44.35;24.15;;;10.50;99.90;;;;;;5070787;28;20498;-81
2023/05/15 03:17:01;;;;;;;46.33;24.25;;;10.40;99.90;;;;;;5052183;28;20052;-81
2023/05/15 03:19:26;;;;;;;43.13;24.95;;;10.40;99.90;;;;;;5069691;28;20047;-81
2023/05/15 03:21:52;;;;;;;51.72;25.55;;;10.40;99.90;;;;;;5088105;28;20112;-81
2023/05/15 03:24:17;;;;;;;55.70;23.02;;;10.40;99.90;;;;;;5048208;28;20094;-81
2023/05/15 03:26:43;;;;;;;43.63;23.70;;;10.30;99.90;;;;;;5086841;28;20391;-81
2023/05/15 03:29:10;;;;;;;41.88;24.88;;;10.30;99.90;;;;;;5084659;28;20092;-81
2023/05/15 03:31:35;;;;;;;64.55;24.85;;;10.40;99.90;;;;;;5086332;28;20044;-81
2023/05/15 03:34:01;;;;;;;67.43;26.42;;;10.40;99.90;;;;;;5068062;28;20448;-82
2023/05/15 03:36:30;;;;;;;64.65;26.42;;;10.40;99.90;;;;;;5086716;28;20044;-81
2023/05/15 03:38:55;;;;;;;66.00;26.38;;;10.40;99.90;;;;;;5068874;28;20056;-81
2023/05/15 03:41:22;;;;;;;51.97;23.77;;;10.40;99.90;;;;;;5064726;28;20040;-81
2023/05/15 03:43:48;;;;;;;45.40;23.67;;;10.30;99.90;;;;;;5076476;28;20115;-82
2023/05/15 03:46:14;;;;;;;41.40;23.08;;;10.20;99.90;;;;;;5086147;28;20431;-81
2023/05/15 03:48:39;;;;;;;47.65;21.67;;;10.20;99.90;;;;;;5084293;28;20048;-81
2023/05/15 03:51:05;;;;;;;39.03;22.23;;;10.10;99.90;;;;;;5082902;28;20040;-81
2023/05/15 03:53:30;;;;;;;38.85;23.27;;;10.00;99.90;;;;;;5068826;28;20043;-81
2023/05/15 03:55:56;;;;;;;41.92;24.67;;;10.00;99.90;;;;;;5066755;28;20096;-81
2023/05/15 03:58:24;;;;;;;69.78;23.92;;;10.10;99.90;;;;;;5052304;28;20051;-81
2023/05/15 04:00:49;;;;;;;40.20;20.85;;;10.10;99.90;;;;;;5067523;28;20048;-81
2023/05/15 04:03:15;;;;;;;45.15;23.27;;;10.00;99.90;;;;;;5081039;28;20098;-81
2023/05/15 04:05:40;;;;;;;35.97;20.75;;;10.00;99.90;;;;;;5086997;28;20135;-81
2023/05/15 04:08:08;;;;;;;34.60;21.05;;;10.00;99.90;;;;;;5065976;28;20493;-81
2023/05/15 04:10:34;;;;;;;33.00;19.52;;;10.00;99.90;;;;;;5071741;28;20055;-81
2023/05/15 04:12:59;;;;;;;32.00;21.63;;;9.90;99.90;;;;;;5068798;28;20048;-81
2023/05/15 04:15:28;;;;;;;32.83;19.70;;;9.90;99.90;;;;;;5086408;28;20043;-81
2023/05/15 04:17:54;;;;;;;34.08;20.88;;;9.90;99.90;;;;;;5087120;28;20541;-81
2023/05/15 04:20:22;;;;;;;34.70;21.20;;;9.90;99.90;;;;;;5062755;28;20128;-81
2023/05/15 04:22:48;;;;;;;34.83;20.17;;;9.90;99.90;;;;;;5075571;28;20047;-81
2023/05/15 04:25:14;;;;;;;35.55;21.85;;;9.80;99.90;;;;;;5068171;28;20048;-81
2023/05/15 04:27:41;;;;;;;37.67;23.02;;;9.80;99.90;;;;;;5083763;28;20513;-81
2023/05/15 04:30:07;;;;;;;37.38;20.95;;;9.80;99.90;;;;;;5084862;28;20047;-81
2023/05/15 04:32:34;;;;;;;33.92;19.92;;;9.80;99.90;;;;;;5080395;28;20037;-81
2023/05/15 04:35:00;;;;;;;40.78;22.52;;;9.80;99.90;;;;;;5068167;28;20051;-81
2023/05/15 04:37:27;;;;;;;39.28;22.90;;;9.80;99.90;;;;;;5062324;28;20151;-81
2023/05/15 04:39:53;;;;;;;37.17;21.85;;;9.80;99.90;;;;;;5076050;28;20032;-81
2023/05/15 04:42:18;;;;;;;35.35;21.42;;;9.90;99.90;;;;;;5085050;28;20044;-82
2023/05/15 04:44:44;;;;;;;35.38;20.17;;;10.00;99.90;;;;;;5079368;28;20045;-81
2023/05/15 04:47:10;;;;;;;35.25;21.98;;;9.90;99.90;;;;;;5078457;28;20048;-81
2023/05/15 04:49:36;;;;;;;36.15;21.20;;;9.90;99.90;;;;;;5082067;28;20059;-81
2023/05/15 04:52:02;;;;;;;32.35;20.70;;;9.90;99.90;;;;;;5086376;28;20067;-81
2023/05/15 04:54:27;;;;;;;33.85;21.02;;;9.90;99.90;;;;;;5066865;28;20044;-81
2023/05/15 04:56:53;;;;;;;32.70;20.15;;;9.90;99.90;;;;;;5082827;28;20072;-80
2023/05/15 04:59:18;;;;;;;30.42;19.23;;;9.90;99.90;;;;;;5066493;28;20332;-80
2023/05/15 05:01:44;;;;;;;29.25;19.08;;;9.90;99.90;;;;;;5066525;28;20036;-81
2023/05/15 05:04:10;;;;;;;27.45;19.17;;;10.00;99.90;;;;;;5090325;28;20083;-80
2023/05/15 05:06:35;;;;;;;30.33;18.55;;;10.00;99.90;;;;;;5088310;28;20059;-81
2023/05/15 05:09:01;;;;;;;28.73;19.23;;;10.10;99.90;;;;;;5086336;28;20070;-81
2023/05/15 05:11:26;;;;;;;28.50;18.42;;;10.10;99.90;;;;;;5080945;28;20124;-81
2023/05/15 05:13:52;;;;;;;28.17;18.48;;;10.10;99.90;;;;;;5085898;28;20390;-80
2023/05/15 05:16:17;;;;;;;27.98;18.23;;;10.20;99.90;;;;;;5089410;28;20048;-82
2023/05/15 05:18:43;;;;;;;29.92;20.05;;;10.10;99.90;;;;;;5071446;28;20043;-81
2023/05/15 05:21:09;;;;;;;31.45;20.67;;;10.00;99.90;;;;;;5090941;28;20066;-81
2023/05/15 05:23:35;;;;;;;29.50;20.05;;;10.00;99.90;;;;;;5072739;28;20203;-82
2023/05/15 05:26:00;;;;;;;32.35;20.45;;;10.00;99.90;;;;;;5090488;28;20452;-83
2023/05/15 05:28:26;;;;;;;29.45;18.92;;;10.10;99.90;;;;;;5073073;28;20044;-82
2023/05/15 05:30:52;;;;;;;30.02;19.38;;;10.10;99.90;;;;;;5072571;28;20797;-83
2023/05/15 05:33:17;;;;;;;29.13;18.85;;;10.10;99.90;;;;;;5081332;28;20036;-83
2023/05/15 05:35:43;;;;;;;26.42;18.73;;;10.10;99.90;;;;;;5088874;28;20132;-83
2023/05/15 05:38:08;;;;;;;30.48;17.20;;;10.20;99.90;;;;;;5091224;28;20075;-82
2023/05/15 05:40:34;;;;;;;25.75;18.38;;;10.20;99.90;;;;;;5089245;28;20482;-81
2023/05/15 05:43:00;;;;;;;25.80;16.98;;;10.20;99.90;;;;;;5090614;28;20082;-81
2023/05/15 05:45:27;;;;;;;27.35;17.88;;;10.10;99.90;;;;;;5090890;28;20066;-83
2023/05/15 05:47:54;;;;;;;25.42;18.15;;;10.10;99.90;;;;;;5087822;28;20056;-82
2023/05/15 05:50:20;;;;;;;28.67;17.40;;;10.20;99.90;;;;;;5071306;28;20097;-83
2023/05/15 05:52:46;;;;;;;24.42;17.02;;;10.30;99.90;;;;;;5089317;28;20048;-81
2023/05/15 05:55:11;;;;;;;23.35;17.75;;;10.40;99.90;;;;;;5070664;28;20087;-83
2023/05/15 05:57:37;;;;;;;27.73;17.38;;;10.50;99.90;;;;;;5090754;28;20050;-83
2023/05/15 06:00:06;;;;;;;22.95;16.83;;;10.50;99.90;;;;;;5071872;28;20516;-83
2023/05/15 06:02:32;;;;;;;24.92;17.48;;;10.60;99.90;;;;;;5090705;28;20040;-82
2023/05/15 06:04:57;;;;;;;24.88;17.25;;;10.70;99.90;;;;;;5072207;28;20075;-82
2023/05/15 06:07:23;;;;;;;27.80;17.75;;;11.20;99.90;;;;;;5055136;28;20573;-82
2023/05/15 06:09:48;;;;;;;22.65;16.30;;;10.90;99.90;;;;;;5072132;28;20094;-82
2023/05/15 06:12:14;;;;;;;22.50;16.83;;;11.10;99.90;;;;;;5070861;28;20137;-82
2023/05/15 06:14:40;;;;;;;22.67;16.95;;;11.40;99.90;;;;;;5069397;28;20450;-82
2023/05/15 06:17:05;;;;;;;23.88;16.73;;;11.70;99.90;;;;;;5089362;28;20036;-82
2023/05/15 06:19:31;;;;;;;24.88;17.55;;;12.00;99.90;;;;;;5089199;28;20076;-82
2023/05/15 06:21:56;;;;;;;23.20;16.52;;;12.40;99.90;;;;;;5083535;28;20055;-83
2023/05/15 06:24:22;;;;;;;21.77;15.85;;;12.80;99.90;;;;;;5088808;28;20134;-82
2023/05/15 06:26:48;;;;;;;24.88;16.52;;;12.90;99.90;;;;;;5089603;28;20048;-82
2023/05/15 06:29:13;;;;;;;22.52;16.50;;;13.00;99.90;;;;;;5089188;28;20051;-82
2023/05/15 06:31:39;;;;;;;19.55;15.55;;;13.00;99.90;;;;;;5087897;28;20040;-82
2023/05/15 06:34:05;;;;;;;20.42;16.67;;;13.10;99.90;;;;;;5086140;28;20044;-82
2023/05/15 06:36:30;;;;;;;18.10;15.70;;;13.10;99.90;;;;;;5070233;28;20043;-82
2023/05/15 06:38:56;;;;;;;19.42;15.55;;;13.10;99.90;;;;;;5069493;28;20363;-82
2023/05/15 06:41:22;;;;;;;20.63;15.70;;;13.10;99.90;;;;;;5052436;28;20036;-81
2023/05/15 06:43:47;;;;;;;19.73;15.63;;;13.10;99.90;;;;;;5087399;28;20055;-82
2023/05/15 06:46:15;;;;;;;18.90;15.77;;;13.20;99.90;;;;;;5071693;28;20040;-82
2023/05/15 06:48:40;;;;;;;19.33;15.15;;;13.30;99.90;;;;;;5071746;28;20389;-82
2023/05/15 06:51:06;;;;;;;17.73;15.40;;;13.10;99.90;;;;;;5071522;28;20048;-82
2023/05/15 06:53:32;;;;;;;20.08;15.68;;;13.10;99.90;;;;;;5089460;28;20044;-82
2023/05/15 06:55:57;;;;;;;18.15;15.15;;;12.90;99.90;;;;;;5089493;28;20048;-82
2023/05/15 06:58:24;;;;;;;18.50;15.90;;;13.10;99.90;;;;;;5070690;28;20048;-82
2023/05/15 07:00:50;;;;;;;20.23;15.52;;;13.30;99.90;;;;;;5070834;28;20086;-82
2023/05/15 07:03:16;;;;;;;18.55;15.63;;;13.40;99.90;;;;;;5088754;28;20079;-82
2023/05/15 07:05:42;;;;;;;17.48;14.43;;;13.60;99.90;;;;;;5054227;28;20086;-83
2023/05/15 07:08:07;;;;;;;18.77;15.60;;;13.80;99.90;;;;;;5088899;28;20048;-82
2023/05/15 07:10:33;;;;;;;17.77;14.93;;;13.90;99.90;;;;;;5054270;28;20414;-82
2023/05/15 07:12:58;;;;;;;17.05;14.77;;;14.00;99.90;;;;;;5089293;28;20047;-83
2023/05/15 07:15:24;;;;;;;17.95;15.05;;;14.30;99.90;;;;;;5070369;28;20048;-83
2023/05/15 07:17:50;;;;;;;18.63;15.02;;;14.40;99.90;;;;;;5096886;28;20047;-82
2023/05/15 07:20:16;;;;;;;19.30;14.88;;;14.60;99.90;;;;;;5069990;28;20052;-82
2023/05/15 07:22:41;;;;;;;16.05;14.23;;;14.70;99.90;;;;;;5088695;28;20578;-82
2023/05/15 07:25:07;;;;;;;16.83;14.45;;;14.50;99.90;;;;;;5087672;28;20112;-81
2023/05/15 07:27:33;;;;;;;19.95;14.38;;;14.40;99.90;;;;;;5069820;28;20127;-81
2023/05/15 07:30:00;;;;;;;15.80;14.20;;;14.30;99.90;;;;;;5070489;28;20130;-82
2023/05/15 07:32:25;;;;;;;16.63;14.02;;;14.50;99.90;;;;;;5088220;28;20097;-82
2023/05/15 07:34:51;;;;;;;15.35;13.57;;;14.60;99.90;;;;;;5061474;28;20044;-82
2023/05/15 07:37:16;;;;;;;17.35;13.82;;;14.60;99.90;;;;;;5068500;28;20102;-82
2023/05/15 07:39:42;;;;;;;14.68;13.05;;;14.70;99.90;;;;;;5071042;28;20090;-82
2023/05/15 07:42:08;;;;;;;17.52;13.90;;;15.00;99.90;;;;;;5069694;28;20055;-81
2023/05/15 07:44:34;;;;;;;16.15;13.23;;;15.20;99.90;;;;;;5068974;28;20131;-79
2023/05/15 07:47:00;;;;;;;15.63;13.65;;;15.30;99.90;;;;;;5088618;28;20113;-79
2023/05/15 07:49:25;;;;;;;14.10;12.60;;;15.50;99.90;;;;;;5083458;28;20048;-79
2023/05/15 07:51:51;;;;;;;16.35;13.15;;;15.70;99.90;;;;;;5076837;28;20046;-79
2023/05/15 07:54:16;;;;;;;14.90;13.40;;;15.80;99.90;;;;;;5068908;28;20044;-79
2023/05/15 07:56:42;;;;;;;14.20;12.73;;;15.90;99.90;;;;;;5087988;28;20489;-79
2023/05/15 07:59:08;;;;;;;15.23;12.95;;;15.90;99.90;;;;;;5086675;28;20071;-79
2023/05/15 08:01:34;;;;;;;14.18;12.75;;;15.90;99.90;;;;;;5088150;28;20059;-80
2023/05/15 08:03:59;;;;;;;15.32;13.63;;;15.90;99.90;;;;;;5082396;28;20036;-79
2023/05/15 08:06:25;;;;;;;14.57;13.07;;;15.90;99.90;;;;;;5063451;28;20056;-77
2023/05/15 08:08:50;;;;;;;15.77;14.00;;;16.00;99.90;;;;;;5082011;28;20440;-79
2023/05/15 08:11:17;;;;;;;14.88;13.30;;;16.00;99.90;;;;;;5086583;28;20048;-79
2023/05/15 08:13:43;;;;;;;16.38;13.30;;;15.90;99.90;;;;;;5067923;28;20079;-79
2023/05/15 08:16:08;;;;;;;14.70;13.18;;;16.00;99.90;;;;;;5085184;28;20071;-79
2023/05/15 08:18:34;;;;;;;14.40;12.85;;;16.00;99.90;;;;;;5086444;28;20086;-79
2023/05/15 08:21:00;;;;;;;14.45;13.02;;;16.20;99.90;;;;;;5087302;28;20139;-78
2023/05/15 08:23:25;;;;;;;16.80;13.60;;;16.30;99.90;;;;;;5088081;28;20084;-79
2023/05/15 08:25:51;;;;;;;14.18;12.68;;;16.10;99.90;;;;;;5088050;28;20051;-79
2023/05/15 08:28:16;;;;;;;14.07;12.32;;;16.10;99.90;;;;;;5067559;28;20040;-79
2023/05/15 08:30:42;;;;;;;15.95;14.18;;;16.10;99.90;;;;;;5085877;28;20036;-79
2023/05/15 08:33:08;;;;;;;14.13;12.65;;;16.00;99.90;;;;;;5086300;28;20287;-79
2023/05/15 08:35:33;;;;;;;14.75;12.90;;;16.10;99.90;;;;;;5053052;28;20504;-79
2023/05/15 08:37:59;;;;;;;14.07;12.57;;;16.30;99.90;;;;;;5091850;28;20550;-79
2023/05/15 08:40:25;;;;;;;13.95;12.45;;;16.40;99.90;;;;;;5089379;28;20040;-78
2023/05/15 08:42:58;;;;;;;13.77;12.38;;;16.60;99.90;;;;;;5071766;28;20063;-79
2023/05/15 08:45:24;;;;;;;15.13;13.52;;;16.80;99.90;;;;;;5071691;28;20052;-79
2023/05/15 08:47:50;;;;;;;16.90;14.00;;;16.90;99.90;;;;;;5069552;28;20059;-79
2023/05/15 08:50:16;;;;;;;15.93;14.23;;;17.00;99.90;;;;;;5088565;28;20044;-79
2023/05/15 08:52:46;;;;;;;15.18;13.63;;;17.10;99.90;;;;;;5069743;28;20110;-78
2023/05/15 08:55:16;;;;;;;15.75;12.82;;;17.20;99.90;;;;;;5069907;28;20048;-79
2023/05/15 08:57:42;;;;;;;13.63;11.82;;;17.20;99.90;;;;;;5069866;28;20052;-78
2023/05/15 09:00:13;;;;;;;14.25;12.77;;;17.40;99.90;;;;;;5070104;28;20095;-78
2023/05/15 09:02:40;;;;;;;14.43;12.98;;;17.60;99.90;;;;;;5070074;28;20388;-78
2023/05/15 09:05:07;;;;;;;12.93;11.63;;;17.80;99.90;;;;;;5070452;28;20051;-78
2023/05/15 09:07:33;;;;;;;13.02;11.57;;;17.90;99.90;;;;;;5088641;28;20032;-78
2023/05/15 09:10:02;;;;;;;14.77;13.27;;;18.00;99.90;;;;;;5071566;28;20056;-78
2023/05/15 09:12:33;;;;;;;14.18;12.68;;;18.00;99.90;;;;;;5090277;28;20489;-78
2023/05/15 09:15:20;;;;;;;14.65;13.15;;;17.80;99.90;;;;;;5071827;28;20057;-78
2023/05/15 09:17:47;;;;;;;16.40;14.70;;;17.80;99.90;;;;;;5089863;28;20376;-79
2023/05/15 09:20:31;;;;;;;14.68;13.27;;;17.80;99.90;;;;;;5073283;28;20047;-78
2023/05/15 09:22:59;;;;;;;14.02;12.52;;;17.80;99.90;;;;;;5089901;28;20077;-78
2023/05/15 09:25:36;;;;;;;12.25;10.82;;;17.90;99.90;;;;;;5072362;28;20140;-78
2023/05/15 09:28:02;;;;;;;17.23;13.63;;;18.10;99.90;;;;;;5071406;28;20108;-78
2023/05/15 09:30:29;;;;;;;17.88;12.75;;;18.00;99.90;;;;;;5090235;28;20044;-78
2023/05/15 09:33:00;;;;;;;13.90;11.85;;;18.10;99.90;;;;;;5089392;28;20052;-78
2023/05/15 09:35:34;;;;;;;17.05;12.70;;;18.00;99.90;;;;;;5072486;28;20040;-78
2023/05/15 09:38:00;;;;;;;15.15;13.18;;;18.00;99.90;;;;;;5089528;28;20051;-79
2023/05/15 09:40:30;;;;;;;14.55;12.43;;;18.00;99.90;;;;;;5091022;28;20051;-79
2023/05/15 09:42:56;;;;;;;13.80;12.40;;;18.00;99.90;;;;;;5087250;28;20056;-78
2023/05/15 09:45:24;;;;;;;15.05;12.32;;;18.10;99.90;;;;;;5072411;28;20051;-78
2023/05/15 09:47:50;;;;;;;15.43;12.10;;;18.10;99.90;;;;;;5089080;28;20105;-78
2023/05/15 09:50:23;;;;;;;13.43;11.93;;;18.20;99.90;;;;;;5055803;28;20494;-78
2023/05/15 09:52:53;;;;;;;14.48;12.02;;;18.30;99.90;;;;;;5089602;28;20072;-78
2023/05/15 09:55:20;;;;;;;14.30;11.95;;;18.20;98.70;;;;;;5088229;28;20108;-77
2023/05/15 09:58:05;;;;;;;13.88;11.93;;;18.20;98.40;;;;;;5088677;28;20550;-78
2023/05/15 10:00:32;;;;;;;12.75;11.38;;;18.10;95.10;;;;;;5089905;28;20048;-78
2023/05/15 10:03:00;;;;;;;11.73;10.57;;;18.50;99.20;;;;;;5090482;28;20052;-79
2023/05/15 10:05:27;;;;;;;12.43;10.43;;;18.60;98.00;;;;;;5089908;28;20044;-79
2023/05/15 10:07:56;;;;;;;12.57;11.27;;;18.80;96.30;;;;;;5080743;28;20040;-78
2023/05/15 10:10:23;;;;;;;13.77;11.10;;;19.00;94.80;;;;;;5071492;28;20048;-79
2023/05/15 10:12:50;;;;;;;13.02;11.13;;;18.90;94.10;;;;;;5088259;28;20918;-79
2023/05/15 10:15:17;;;;;;;12.45;11.00;;;18.90;93.90;;;;;;5068514;28;20064;-78
2023/05/15 10:17:48;;;;;;;12.57;9.98;;;19.00;93.90;;;;;;5081404;28;20071;-79
2023/05/15 10:20:15;;;;;;;10.38;9.30;;;19.00;92.30;;;;;;5090414;28;20128;-79
2023/05/15 10:22:46;;;;;;;11.73;9.43;;;19.00;85.70;;;;;;5098376;28;20056;-80
2023/05/15 10:25:11;;;;;;;10.15;9.05;;;19.00;85.30;;;;;;5083469;28;20048;-79
2023/05/15 10:27:39;;;;;;;11.27;9.95;;;19.00;87.60;;;;;;5068098;28;20367;-80
2023/05/15 10:30:08;;;;;;;10.95;9.85;;;19.20;87.90;;;;;;5088272;28;20444;-79
2023/05/15 10:32:35;;;;;;;10.80;9.73;;;19.20;86.20;;;;;;5072181;28;20040;-79
2023/05/15 10:35:01;;;;;;;10.75;9.52;;;19.20;86.20;;;;;;5089596;28;20406;-79
2023/05/15 10:37:29;;;;;;;12.63;10.10;;;19.40;87.40;;;;;;5088372;28;20644;-79
2023/05/15 10:39:57;;;;;;;12.05;10.88;;;19.30;86.50;;;;;;5089152;28;20059;-80
2023/05/15 10:42:25;;;;;;;11.20;10.10;;;19.50;86.50;;;;;;5089248;28;20125;-80
2023/05/15 10:44:58;;;;;;;14.38;10.77;;;19.70;87.10;;;;;;5071223;28;20257;-79
2023/05/15 10:47:25;;;;;;;12.55;11.25;;;19.70;86.40;;;;;;5051765;28;20129;-80
2023/05/15 10:49:50;;;;;;;12.50;11.25;;;19.90;86.80;;;;;;5069802;28;20048;-80
2023/05/15 10:52:16;;;;;;;12.32;11.07;;;20.00;86.90;;;;;;5066753;28;20047;-80
2023/05/15 10:54:42;;;;;;;13.75;11.85;;;20.10;87.10;;;;;;5066521;28;20458;-80
2023/05/15 10:57:08;;;;;;;14.73;12.52;;;20.00;86.50;;;;;;5050972;28;20383;-79
2023/05/15 10:59:33;;;;;;;13.27;11.98;;;19.80;87.00;;;;;;5068400;28;20038;-80
2023/05/15 11:02:22;;;;;;;15.30;11.77;;;19.70;87.40;;;;;;5066575;28;20141;-80
2023/05/15 11:05:02;;;;;;;13.25;11.75;;;19.70;87.20;;;;;;5065199;28;20055;-80
2023/05/15 11:07:28;;;;;;;11.80;10.60;;;19.70;86.50;;;;;;5050225;28;20044;-80
2023/05/15 11:09:55;;;;;;;12.88;11.73;;;19.70;87.30;;;;;;5050672;28;20091;-80
2023/05/15 11:12:21;;;;;;;13.82;12.48;;;19.80;85.80;;;;;;5068914;28;20089;-80
2023/05/15 11:14:55;;;;;;;13.55;12.25;;;19.60;84.90;;;;;;5060433;28;20037;-80
2023/05/15 11:17:25;;;;;;;13.40;12.00;;;19.60;84.20;;;;;;5066592;28;20094;-80
2023/05/15 11:19:50;;;;;;;16.35;13.10;;;19.50;85.90;;;;;;5049738;28;20052;-80
2023/05/15 11:22:20;;;;;;;15.48;13.30;;;19.50;87.70;;;;;;5067452;28;20036;-80
2023/05/15 11:25:09;;;;;;;14.50;13.00;;;19.30;88.20;;;;;;5067095;28;20056;-80
2023/05/15 11:27:39;;;;;;;13.43;12.13;;;19.30;88.60;;;;;;5067119;28;20101;-80
2023/05/15 11:30:06;;;;;;;12.90;11.43;;;19.40;89.30;;;;;;5068189;28;20410;-80
2023/05/15 11:32:42;;;;;;;14.07;12.60;;;19.50;88.80;;;;;;5067848;28;20052;-80
2023/05/15 11:35:12;;;;;;;12.23;11.02;;;19.50;88.60;;;;;;5067430;28;20051;-80
2023/05/15 11:37:53;;;;;;;12.50;11.30;;;19.50;88.60;;;;;;5067750;28;20219;-81
2023/05/15 11:40:20;;;;;;;12.38;11.10;;;19.40;87.10;;;;;;5068352;28;20041;-80
2023/05/15 11:43:25;;;;;;;11.77;10.65;;;19.40;89.60;;;;;;5066032;28;20348;-81
2023/05/15 11:46:05;;;;;;;14.18;10.85;;;19.50;87.10;;;;;;5066019;28;20101;-81
2023/05/15 11:48:33;;;;;;;12.00;10.68;;;19.50;87.00;;;;;;5033572;28;20429;-81
2023/05/15 11:51:03;;;;;;;11.98;10.85;;;19.50;87.50;;;;;;5063036;28;20105;-80
2023/05/15 11:53:29;;;;;;;12.02;10.82;;;19.60;86.20;;;;;;5065673;28;20776;-80
2023/05/15 11:55:55;;;;;;;11.80;10.70;;;19.40;85.50;;;;;;5050649;28;20128;-80
2023/05/15 11:58:23;;;;;;;45.88;12.85;;;19.30;85.40;;;;;;5065767;28;20468;-80
2023/05/15 12:00:50;;;;;;;10.75;9.65;;;19.40;86.60;;;;;;5066899;28;20674;-79
2023/05/15 12:03:24;;;;;;;11.00;9.45;;;19.20;86.70;;;;;;5067062;28;20430;-81
2023/05/15 12:05:52;;;;;;;13.88;9.55;;;19.20;86.90;;;;;;5066937;28;20071;-79
2023/05/15 12:08:20;;;;;;;10.73;9.63;;;19.10;86.70;;;;;;5068295;28;20041;-81
2023/05/15 12:10:46;;;;;;;11.85;10.30;;;19.10;86.30;;;;;;5067955;28;20087;-79
2023/05/15 12:13:17;;;;;;;10.90;9.80;;;19.10;85.90;;;;;;5049234;28;20058;-80
2023/05/15 12:15:46;;;;;;;9.77;8.88;;;19.10;85.00;;;;;;5049005;28;20051;-80
2023/05/15 12:18:12;;;;;;;9.90;8.93;;;19.20;85.00;;;;;;5067049;28;20037;-80
2023/05/15 12:20:43;;;;;;;12.32;9.07;;;19.30;82.90;;;;;;5063272;28;20831;-81
2023/05/15 12:23:09;;;;;;;10.38;9.32;;;19.30;82.00;;;;;;5048925;28;20135;-80
2023/05/15 12:25:35;;;;;;;9.13;8.13;;;19.40;81.60;;;;;;5066608;28;20128;-80
2023/05/15 12:28:03;;;;;;;9.25;8.35;;;19.50;80.10;;;;;;5065825;28;20048;-80
2023/05/15 12:30:33;;;;;;;9.80;8.82;;;19.60;77.80;;;;;;5068102;28;20797;-80